createdAt,value
2019-01-13T00:01:06.244Z,3.32
2019-01-13T00:03:33.159Z,3.26
2019-01-13T00:05:59.826Z,3.29
2019-01-13T00:08:26.826Z,3.27
2019-01-13T00:10:53.741Z,3.25
2019-01-13T00:13:20.988Z,3.30
2019-01-13T00:15:48.012Z,3.32
2019-01-13T00:18:15.709Z,3.27
2019-01-13T00:20:43.393Z,3.32
2019-01-13T00:23:10.990Z,3.32
2019-01-13T00:25:38.083Z,3.29
2019-01-13T00:28:06.974Z,3.28
2019-01-13T00:30:34.002Z,3.31
2019-01-13T00:33:00.983Z,3.23
2019-01-13T00:35:28.061Z,3.34
2019-01-13T00:37:54.982Z,3.31
2019-01-13T00:40:22.987Z,3.35
2019-01-13T00:42:50.846Z,3.34
2019-01-13T00:45:18.902Z,3.37
2019-01-13T00:47:45.929Z,3.39
2019-01-13T00:50:13.679Z,3.44
2019-01-13T00:52:40.711Z,3.49
2019-01-13T00:55:07.736Z,3.49
2019-01-13T00:57:37.190Z,3.43
2019-01-13T01:00:04.746Z,3.49
2019-01-13T01:02:31.812Z,3.51
2019-01-13T01:04:59.881Z,3.58
2019-01-13T01:07:27.209Z,3.60
2019-01-13T01:09:54.355Z,3.60
2019-01-13T01:12:22.256Z,3.67
2019-01-13T01:14:50.977Z,3.62
2019-01-13T01:17:17.560Z,3.62
2019-01-13T01:19:45.455Z,3.64
2019-01-13T01:22:12.434Z,3.69
2019-01-13T01:24:39.563Z,3.67
2019-01-13T01:27:06.510Z,3.71
2019-01-13T01:29:34.246Z,3.74
2019-01-13T01:32:02.329Z,3.76
2019-01-13T01:34:29.384Z,3.75
2019-01-13T01:36:57.024Z,3.75
2019-01-13T01:39:24.148Z,3.79
2019-01-13T01:41:52.169Z,3.79
2019-01-13T01:44:19.919Z,3.82
2019-01-13T01:46:47.886Z,3.85
2019-01-13T01:49:15.027Z,3.88
2019-01-13T01:51:42.031Z,3.89
2019-01-13T01:54:09.784Z,3.94
2019-01-13T01:56:36.793Z,3.94
2019-01-13T01:59:03.927Z,3.95
2019-01-13T02:01:31.073Z,3.96
2019-01-13T02:03:58.111Z,3.96
2019-01-13T02:06:25.229Z,3.98
2019-01-13T02:08:53.033Z,4.04
2019-01-13T02:11:20.153Z,4.04
2019-01-13T02:13:47.459Z,4.08
2019-01-13T02:16:14.570Z,4.14
2019-01-13T02:18:41.618Z,4.21
2019-01-13T02:21:08.590Z,4.22
2019-01-13T02:23:36.310Z,4.25
2019-01-13T02:26:03.304Z,4.22
2019-01-13T02:28:31.207Z,4.13
2019-01-13T02:31:00.104Z,4.10
2019-01-13T02:33:27.177Z,4.11
2019-01-13T02:35:55.380Z,4.14
2019-01-13T02:38:22.391Z,4.18
2019-01-13T02:40:50.425Z,4.20
2019-01-13T02:43:18.253Z,4.25
2019-01-13T02:45:44.900Z,4.29
2019-01-13T02:48:11.956Z,4.24
2019-01-13T02:50:39.115Z,4.21
2019-01-13T02:53:07.024Z,4.18
2019-01-13T02:55:35.356Z,4.24
2019-01-13T02:58:03.109Z,4.22
2019-01-13T03:00:30.420Z,4.22
2019-01-13T03:02:58.335Z,4.16
2019-01-13T03:05:25.351Z,4.19
2019-01-13T03:07:52.422Z,4.13
2019-01-13T03:10:19.416Z,4.11
2019-01-13T03:12:47.345Z,4.13
2019-01-13T03:15:19.370Z,4.11
2019-01-13T03:17:44.624Z,4.07
2019-01-13T03:20:11.823Z,4.04
2019-01-13T03:22:39.873Z,4.04
2019-01-13T03:25:07.822Z,4.04
2019-01-13T03:27:35.693Z,4.02
2019-01-13T03:30:02.823Z,4.06
2019-01-13T03:32:30.093Z,4.08
2019-01-13T03:34:57.136Z,4.01
2019-01-13T03:37:24.171Z,4.00
2019-01-13T03:39:51.498Z,4.00
2019-01-13T03:42:19.439Z,4.02
2019-01-13T03:44:47.192Z,4.01
2019-01-13T03:47:14.229Z,3.98
2019-01-13T03:49:42.088Z,3.99
2019-01-13T03:52:10.216Z,3.94
2019-01-13T03:54:38.263Z,3.95
2019-01-13T03:57:05.654Z,3.91
2019-01-13T03:59:33.529Z,3.91
2019-01-13T04:02:01.844Z,3.94
2019-01-13T04:04:29.438Z,3.98
2019-01-13T04:06:56.616Z,3.97
2019-01-13T04:09:24.651Z,3.95
2019-01-13T04:11:51.604Z,3.90
2019-01-13T04:14:18.586Z,3.86
2019-01-13T04:16:45.697Z,3.83
2019-01-13T04:19:13.634Z,3.80
2019-01-13T04:21:40.650Z,3.83
2019-01-13T04:24:08.385Z,3.82
2019-01-13T04:26:35.539Z,3.81
2019-01-13T04:29:03.609Z,3.74
2019-01-13T04:31:30.805Z,3.72
2019-01-13T04:33:58.771Z,3.71
2019-01-13T04:36:25.582Z,3.72
2019-01-13T04:38:53.374Z,3.76
2019-01-13T04:41:21.298Z,3.69
2019-01-13T04:43:48.403Z,3.71
2019-01-13T04:46:15.506Z,3.77
2019-01-13T04:48:43.259Z,3.80
2019-01-13T04:51:11.358Z,3.87
2019-01-13T04:53:38.468Z,3.80
2019-01-13T04:56:05.478Z,3.85
2019-01-13T04:58:33.286Z,3.76
2019-01-13T05:01:00.352Z,3.82
2019-01-13T05:03:27.322Z,3.81
2019-01-13T05:05:54.367Z,3.75
2019-01-13T05:08:21.433Z,3.80
2019-01-13T05:10:48.644Z,3.80
2019-01-13T05:13:15.596Z,3.84
2019-01-13T05:15:42.646Z,3.91
2019-01-13T05:18:09.900Z,3.88
2019-01-13T05:20:36.966Z,3.89
2019-01-13T05:23:03.974Z,3.87
2019-01-13T05:25:31.849Z,3.92
2019-01-13T05:27:59.003Z,3.88
2019-01-13T05:30:27.280Z,3.91
2019-01-13T05:32:54.170Z,3.85
2019-01-13T05:35:22.173Z,3.84
2019-01-13T05:37:49.089Z,3.85
2019-01-13T05:40:16.902Z,3.81
2019-01-13T05:42:44.546Z,3.84
2019-01-13T05:45:12.153Z,3.83
2019-01-13T05:47:39.053Z,3.80
2019-01-13T05:50:06.698Z,3.81
2019-01-13T05:52:33.607Z,3.77
2019-01-13T05:55:01.448Z,3.79
2019-01-13T05:57:28.354Z,3.81
2019-01-13T05:59:55.489Z,3.86
2019-01-13T06:02:23.177Z,3.87
2019-01-13T06:04:50.192Z,3.86
2019-01-13T06:07:17.196Z,3.87
2019-01-13T06:09:44.482Z,3.91
2019-01-13T06:12:12.191Z,3.90
2019-01-13T06:14:39.154Z,3.91
2019-01-13T06:17:05.858Z,3.82
2019-01-13T06:19:32.981Z,3.87
2019-01-13T06:21:59.971Z,3.88
2019-01-13T06:24:27.962Z,3.87
2019-01-13T06:26:55.627Z,3.82
2019-01-13T06:29:23.623Z,3.80
2019-01-13T06:31:56.270Z,3.78
2019-01-13T06:34:19.922Z,3.86
2019-01-13T06:36:46.984Z,3.78
2019-01-13T06:39:13.973Z,3.84
2019-01-13T06:41:42.104Z,3.85
2019-01-13T06:44:09.859Z,3.78
2019-01-13T06:46:39.219Z,3.76
2019-01-13T06:49:06.192Z,3.77
2019-01-13T06:51:33.372Z,3.78
2019-01-13T06:53:59.941Z,3.77
2019-01-13T06:56:26.986Z,3.70
2019-01-13T06:58:54.810Z,3.67
2019-01-13T07:01:22.734Z,3.70
2019-01-13T07:03:49.925Z,3.67
2019-01-13T07:06:17.731Z,3.67
2019-01-13T07:08:45.139Z,3.68
2019-01-13T07:11:12.215Z,3.62
2019-01-13T07:13:38.944Z,3.67
2019-01-13T07:16:07.336Z,3.68
2019-01-13T07:18:36.115Z,3.69
2019-01-13T07:21:03.115Z,3.70
2019-01-13T07:23:29.743Z,3.76
2019-01-13T07:25:58.492Z,3.77
2019-01-13T07:28:26.184Z,3.83
2019-01-13T07:30:53.130Z,3.80
2019-01-13T07:33:20.899Z,3.81
2019-01-13T07:35:48.014Z,3.83
2019-01-13T07:38:14.701Z,3.80
2019-01-13T07:40:41.848Z,3.80
2019-01-13T07:43:08.727Z,3.86
2019-01-13T07:45:35.774Z,3.80
2019-01-13T07:48:02.975Z,3.81
2019-01-13T07:50:48.097Z,3.82
2019-01-13T07:53:15.278Z,3.81
2019-01-13T07:55:41.996Z,3.86
2019-01-13T07:58:09.115Z,3.88
2019-01-13T08:00:38.365Z,3.91
2019-01-13T08:03:06.227Z,3.88
2019-01-13T08:05:33.275Z,3.90
2019-01-13T08:08:01.032Z,3.93
2019-01-13T08:10:28.108Z,3.89
2019-01-13T08:12:55.214Z,3.88
2019-01-13T08:15:22.371Z,3.90
2019-01-13T08:17:50.039Z,3.99
2019-01-13T08:20:17.225Z,4.00
2019-01-13T08:22:44.623Z,3.97
2019-01-13T08:25:11.649Z,3.99
2019-01-13T08:27:38.754Z,3.98
2019-01-13T08:30:06.578Z,3.98
2019-01-13T08:32:34.373Z,4.00
2019-01-13T08:35:02.140Z,4.07
2019-01-13T08:37:29.705Z,4.01
2019-01-13T08:39:56.752Z,4.04
2019-01-13T08:42:24.523Z,4.08
2019-01-13T08:44:52.327Z,4.04
2019-01-13T08:47:19.466Z,4.08
2019-01-13T08:49:47.368Z,4.18
2019-01-13T08:52:15.050Z,4.08
2019-01-13T08:54:42.724Z,4.09
2019-01-13T08:57:10.528Z,4.12
2019-01-13T08:59:38.290Z,4.15
2019-01-13T09:02:06.109Z,4.18
2019-01-13T09:04:33.083Z,4.20
2019-01-13T09:07:00.260Z,4.16
2019-01-13T09:09:27.384Z,4.22
2019-01-13T09:11:54.452Z,4.17
2019-01-13T09:14:21.608Z,4.19
2019-01-13T09:16:48.258Z,4.17
2019-01-13T09:19:15.372Z,4.18
2019-01-13T09:21:42.099Z,4.17
2019-01-13T09:24:09.929Z,4.14
2019-01-13T09:26:37.009Z,4.17
2019-01-13T09:29:04.184Z,4.19
2019-01-13T09:31:31.440Z,4.20
2019-01-13T09:33:58.588Z,4.21
2019-01-13T09:36:25.741Z,4.23
2019-01-13T09:38:52.867Z,4.26
2019-01-13T09:41:20.679Z,4.30
2019-01-13T09:43:48.273Z,4.29
2019-01-13T09:46:15.428Z,4.35
2019-01-13T09:48:42.089Z,4.32
2019-01-13T09:51:09.996Z,4.26
2019-01-13T09:53:36.757Z,4.29
2019-01-13T09:56:03.489Z,4.34
2019-01-13T09:58:30.195Z,4.35
2019-01-13T10:00:57.346Z,4.33
2019-01-13T10:03:24.452Z,4.40
2019-01-13T10:05:51.160Z,4.50
2019-01-13T10:08:19.214Z,4.60
2019-01-13T10:10:46.252Z,4.60
2019-01-13T10:13:13.333Z,4.63
2019-01-13T10:15:40.589Z,4.60
2019-01-13T10:18:07.450Z,4.62
2019-01-13T10:20:36.232Z,4.62
2019-01-13T10:23:03.414Z,4.62
2019-01-13T10:25:30.459Z,4.63
2019-01-13T10:27:58.261Z,4.63
2019-01-13T10:30:25.361Z,4.60
2019-01-13T10:32:54.614Z,4.61
2019-01-13T10:35:21.014Z,4.57
2019-01-13T10:37:48.818Z,4.65
2019-01-13T10:40:15.946Z,4.69
2019-01-13T10:42:42.955Z,4.67
2019-01-13T10:45:10.132Z,4.70
2019-01-13T10:47:37.272Z,4.70
2019-01-13T10:50:04.342Z,4.69
2019-01-13T10:52:31.787Z,4.71
2019-01-13T10:54:59.123Z,4.67
2019-01-13T10:57:26.528Z,4.71
2019-01-13T10:59:53.667Z,4.76
2019-01-13T11:02:21.436Z,4.78
2019-01-13T11:04:48.634Z,4.79
2019-01-13T11:07:15.361Z,4.76
2019-01-13T11:09:42.457Z,4.76
2019-01-13T11:12:09.524Z,4.79
2019-01-13T11:14:36.376Z,4.75
2019-01-13T11:17:03.050Z,4.77
2019-01-13T11:19:30.118Z,4.82
2019-01-13T11:21:57.923Z,4.85
2019-01-13T11:24:25.037Z,4.85
2019-01-13T11:26:52.152Z,4.90
2019-01-13T11:29:19.242Z,4.89
2019-01-13T11:31:46.367Z,4.96
2019-01-13T11:34:13.545Z,4.94
2019-01-13T11:36:40.455Z,4.90
2019-01-13T11:39:07.143Z,4.98
2019-01-13T11:41:33.937Z,5.02
2019-01-13T11:44:00.590Z,5.00
2019-01-13T11:46:27.784Z,5.06
2019-01-13T11:48:54.918Z,5.08
2019-01-13T11:51:21.576Z,5.07
2019-01-13T11:53:48.719Z,5.00
2019-01-13T11:56:16.744Z,5.00
2019-01-13T11:58:43.827Z,5.00
2019-01-13T12:01:10.952Z,4.96
2019-01-13T12:03:38.768Z,4.95
2019-01-13T12:06:05.496Z,4.96
2019-01-13T12:08:32.419Z,4.96
2019-01-13T12:10:59.463Z,4.92
2019-01-13T12:13:26.641Z,4.89
2019-01-13T12:15:53.386Z,4.95
2019-01-13T12:18:20.119Z,4.94
2019-01-13T12:20:47.911Z,4.97
2019-01-13T12:23:14.654Z,4.97
2019-01-13T12:25:42.345Z,4.91
2019-01-13T12:28:09.130Z,4.90
2019-01-13T12:30:36.400Z,4.91
2019-01-13T12:33:03.082Z,5.00
2019-01-13T12:35:30.794Z,5.00
2019-01-13T12:37:59.283Z,5.02
2019-01-13T12:40:28.316Z,5.01
2019-01-13T12:42:56.828Z,4.98
2019-01-13T12:45:24.733Z,5.03
2019-01-13T12:47:51.898Z,5.00
2019-01-13T12:50:18.557Z,5.02
2019-01-13T12:52:46.474Z,4.99
2019-01-13T12:55:13.143Z,5.01
2019-01-13T12:57:40.742Z,5.01
2019-01-13T13:00:08.048Z,5.02
2019-01-13T13:02:35.351Z,4.97
2019-01-13T13:05:02.387Z,4.94
2019-01-13T13:07:30.059Z,4.94
2019-01-13T13:09:57.353Z,4.96
2019-01-13T13:12:26.519Z,4.91
2019-01-13T13:14:53.619Z,4.93
2019-01-13T13:17:21.492Z,4.98
2019-01-13T13:19:49.530Z,4.96
2019-01-13T13:22:16.262Z,4.94
2019-01-13T13:24:43.410Z,4.96
2019-01-13T13:27:10.685Z,4.97
2019-01-13T13:29:37.671Z,4.93
2019-01-13T13:32:05.659Z,4.94
2019-01-13T13:34:37.115Z,5.00
2019-01-13T13:37:04.167Z,5.00
2019-01-13T13:39:30.856Z,5.03
2019-01-13T13:41:57.957Z,5.03
2019-01-13T13:44:24.858Z,5.00
2019-01-13T13:46:51.932Z,5.06
2019-01-13T13:49:19.631Z,5.07
2019-01-13T13:51:46.741Z,5.00
2019-01-13T13:54:14.691Z,5.02
2019-01-13T13:56:41.822Z,5.01
2019-01-13T13:59:11.258Z,4.98
2019-01-13T14:01:38.341Z,4.98
2019-01-13T14:04:07.480Z,4.98
2019-01-13T14:06:36.324Z,5.01
2019-01-13T14:09:04.362Z,5.05
2019-01-13T14:11:31.509Z,5.09
2019-01-13T14:13:59.362Z,5.08
2019-01-13T14:16:26.032Z,5.14
2019-01-13T14:18:53.306Z,5.10
2019-01-13T14:21:20.392Z,5.11
2019-01-13T14:23:47.492Z,5.07
2019-01-13T14:26:14.250Z,5.07
2019-01-13T14:28:41.273Z,5.08
2019-01-13T14:31:08.064Z,5.08
2019-01-13T14:33:35.182Z,5.06
2019-01-13T14:36:01.895Z,5.08
2019-01-13T14:38:29.086Z,5.09
2019-01-13T14:40:56.815Z,5.09
2019-01-13T14:43:23.503Z,5.13
2019-01-13T14:45:50.658Z,5.12
2019-01-13T14:48:17.338Z,5.14
2019-01-13T14:50:44.416Z,5.13
2019-01-13T14:53:11.216Z,5.14
2019-01-13T14:55:37.934Z,5.15
2019-01-13T14:58:06.107Z,5.11
2019-01-13T15:00:33.307Z,5.11
2019-01-13T15:03:00.450Z,5.16
2019-01-13T15:05:27.468Z,5.16
2019-01-13T15:07:54.147Z,5.14
2019-01-13T15:10:20.808Z,5.17
2019-01-13T15:12:47.531Z,5.18
2019-01-13T15:15:14.676Z,5.19
2019-01-13T15:17:41.622Z,5.18
2019-01-13T15:20:12.183Z,5.17
2019-01-13T15:22:39.298Z,5.20
2019-01-13T15:25:06.378Z,5.20
2019-01-13T15:27:33.369Z,5.16
2019-01-13T15:30:00.493Z,5.18
2019-01-13T15:32:27.495Z,5.18
2019-01-13T15:34:54.448Z,5.22
2019-01-13T15:37:21.599Z,5.25
2019-01-13T15:39:48.279Z,5.24
2019-01-13T15:42:16.210Z,5.25
2019-01-13T15:44:43.208Z,5.23
2019-01-13T15:47:10.299Z,5.28
2019-01-13T15:49:37.300Z,5.27
2019-01-13T15:52:04.331Z,5.29
2019-01-13T15:54:32.307Z,5.32
2019-01-13T15:56:59.407Z,5.30
2019-01-13T15:59:26.505Z,5.33
2019-01-13T16:01:53.919Z,5.35
2019-01-13T16:04:21.012Z,5.25
2019-01-13T16:06:48.785Z,5.22
2019-01-13T16:09:16.531Z,5.21
2019-01-13T16:11:43.762Z,5.16
2019-01-13T16:14:11.677Z,5.11
2019-01-13T16:16:40.542Z,5.06
2019-01-13T16:19:07.278Z,5.04
2019-01-13T16:21:34.883Z,5.02
2019-01-13T16:24:01.963Z,5.00
2019-01-13T16:26:29.565Z,5.00
2019-01-13T16:28:56.940Z,4.99
2019-01-13T16:31:24.027Z,4.99
2019-01-13T16:33:51.094Z,4.97
2019-01-13T16:36:18.549Z,4.95
2019-01-13T16:38:45.758Z,4.95
2019-01-13T16:41:13.434Z,4.98
2019-01-13T16:43:40.521Z,4.96
2019-01-13T16:46:07.571Z,4.98
2019-01-13T16:48:34.656Z,4.98
2019-01-13T16:51:01.452Z,5.01
2019-01-13T16:53:28.584Z,5.00
2019-01-13T16:55:56.212Z,5.03
2019-01-13T16:58:32.370Z,5.05
2019-01-13T17:00:59.419Z,5.06
2019-01-13T17:03:26.128Z,5.04
2019-01-13T17:05:53.188Z,5.07
2019-01-13T17:08:20.848Z,5.05
2019-01-13T17:10:48.228Z,5.01
2019-01-13T17:13:15.257Z,5.00
2019-01-13T17:15:43.604Z,4.98
2019-01-13T17:18:11.570Z,5.01
2019-01-13T17:20:39.213Z,5.03
2019-01-13T17:23:06.417Z,5.04
2019-01-13T17:25:33.677Z,5.02
2019-01-13T17:28:01.379Z,5.06
2019-01-13T17:30:28.424Z,5.00
2019-01-13T17:32:56.313Z,5.02
2019-01-13T17:35:23.003Z,5.02
2019-01-13T17:37:50.954Z,5.00
2019-01-13T17:40:18.137Z,5.00
2019-01-13T17:42:45.955Z,5.02
2019-01-13T17:45:12.984Z,4.98
2019-01-13T17:47:39.673Z,4.95
2019-01-13T17:50:07.590Z,4.92
2019-01-13T17:52:34.628Z,5.00
2019-01-13T17:55:01.853Z,5.02
2019-01-13T17:57:28.973Z,4.99
2019-01-13T17:59:56.025Z,5.00
2019-01-13T18:02:22.965Z,4.93
2019-01-13T18:04:50.655Z,4.86
2019-01-13T18:07:18.555Z,4.90
2019-01-13T18:09:45.724Z,4.88
2019-01-13T18:12:12.951Z,4.88
2019-01-13T18:14:39.816Z,4.89
2019-01-13T18:17:06.897Z,4.90
2019-01-13T18:19:33.945Z,4.92
2019-01-13T18:22:01.877Z,4.86
2019-01-13T18:24:28.969Z,4.87
2019-01-13T18:26:55.690Z,4.85
2019-01-13T18:29:22.901Z,4.83
2019-01-13T18:31:49.541Z,4.86
2019-01-13T18:34:18.374Z,4.84
2019-01-13T18:36:46.335Z,4.82
2019-01-13T18:39:13.683Z,4.80
2019-01-13T18:41:40.409Z,4.83
2019-01-13T18:44:07.505Z,4.78
2019-01-13T18:46:35.335Z,4.80
2019-01-13T18:49:03.227Z,4.81
2019-01-13T18:51:30.405Z,4.77
2019-01-13T18:53:57.449Z,4.72
2019-01-13T18:56:24.129Z,4.69
2019-01-13T18:58:50.825Z,4.67
2019-01-13T19:01:17.854Z,4.66
2019-01-13T19:03:44.829Z,4.69
2019-01-13T19:06:11.527Z,4.73
2019-01-13T19:08:39.544Z,4.78
2019-01-13T19:11:08.607Z,4.78
2019-01-13T19:13:35.615Z,4.68
2019-01-13T19:16:02.874Z,4.69
2019-01-13T19:18:30.241Z,4.74
2019-01-13T19:20:57.324Z,4.70
2019-01-13T19:23:26.551Z,4.69
2019-01-13T19:25:53.758Z,4.75
2019-01-13T19:28:21.499Z,4.78
2019-01-13T19:30:48.968Z,4.84
2019-01-13T19:33:15.933Z,4.80
2019-01-13T19:35:42.976Z,4.77
2019-01-13T19:38:10.690Z,4.78
2019-01-13T19:40:37.749Z,4.85
2019-01-13T19:43:05.295Z,4.83
2019-01-13T19:45:33.998Z,4.87
2019-01-13T19:48:01.638Z,4.87
2019-01-13T19:50:29.487Z,4.84
2019-01-13T19:52:56.548Z,4.85
2019-01-13T19:55:24.188Z,4.85
2019-01-13T19:57:53.398Z,4.86
2019-01-13T20:00:20.909Z,4.89
2019-01-13T20:02:48.179Z,4.94
2019-01-13T20:05:14.905Z,4.91
2019-01-13T20:07:41.911Z,4.89
2019-01-13T20:10:11.431Z,4.89
2019-01-13T20:12:40.556Z,4.92
2019-01-13T20:15:08.094Z,4.93
2019-01-13T20:17:35.522Z,4.89
2019-01-13T20:20:02.610Z,4.89
2019-01-13T20:22:31.737Z,4.91
2019-01-13T20:24:58.704Z,4.89
2019-01-13T20:27:25.464Z,4.84
2019-01-13T20:29:52.725Z,4.86
2019-01-13T20:32:19.676Z,4.82
2019-01-13T20:34:46.394Z,4.80
2019-01-13T20:37:14.123Z,4.87
2019-01-13T20:39:41.267Z,4.87
2019-01-13T20:42:08.444Z,4.89
2019-01-13T20:44:36.086Z,4.86
2019-01-13T20:47:03.209Z,4.82
2019-01-13T20:49:30.897Z,4.84
2019-01-13T20:51:58.458Z,4.84
2019-01-13T20:54:25.122Z,4.87
2019-01-13T20:56:52.234Z,4.85
2019-01-13T20:59:19.267Z,4.87
2019-01-13T21:01:45.881Z,4.87
2019-01-13T21:04:13.290Z,4.92
2019-01-13T21:06:40.334Z,4.91
2019-01-13T21:09:07.375Z,4.97
2019-01-13T21:11:34.522Z,4.98
2019-01-13T21:14:01.217Z,4.98
2019-01-13T21:16:28.302Z,5.04
2019-01-13T21:18:55.150Z,5.02
2019-01-13T21:21:22.178Z,5.01
2019-01-13T21:23:49.887Z,5.00
2019-01-13T21:26:16.529Z,4.99
2019-01-13T21:28:43.234Z,5.03
2019-01-13T21:31:10.349Z,5.03
2019-01-13T21:33:38.070Z,5.03
2019-01-13T21:36:05.085Z,5.11
2019-01-13T21:38:32.806Z,5.09
2019-01-13T21:40:59.849Z,5.09
2019-01-13T21:43:27.603Z,5.13
2019-01-13T21:45:54.600Z,5.11
2019-01-13T21:48:21.809Z,5.14
2019-01-13T21:50:49.448Z,5.14
2019-01-13T21:53:16.545Z,5.18
2019-01-13T21:55:44.108Z,5.23
2019-01-13T21:58:11.172Z,5.17
2019-01-13T22:00:37.815Z,5.14
2019-01-13T22:03:04.662Z,5.06
2019-01-13T22:05:32.377Z,5.00
2019-01-13T22:07:59.419Z,4.91
2019-01-13T22:10:28.022Z,4.83
2019-01-13T22:12:54.786Z,4.80
2019-01-13T22:15:22.492Z,4.83
2019-01-13T22:17:49.625Z,4.76
2019-01-13T22:20:16.672Z,4.75
2019-01-13T22:22:44.537Z,4.69
2019-01-13T22:25:11.440Z,4.64
2019-01-13T22:27:38.592Z,4.68
2019-01-13T22:30:05.844Z,4.75
2019-01-13T22:32:32.916Z,4.71
2019-01-13T22:35:00.024Z,4.65
2019-01-13T22:37:27.066Z,4.66
2019-01-13T22:39:54.749Z,4.68
2019-01-13T22:42:21.642Z,4.69
2019-01-13T22:44:49.446Z,4.71
2019-01-13T22:47:16.568Z,4.68
2019-01-13T22:49:44.403Z,4.66
2019-01-13T22:52:11.506Z,4.71
2019-01-13T22:54:39.481Z,4.75
2019-01-13T22:57:06.462Z,4.77
2019-01-13T22:59:33.512Z,4.80
2019-01-13T23:02:00.685Z,4.87
2019-01-13T23:04:27.715Z,4.91
2019-01-13T23:06:54.296Z,4.96
2019-01-13T23:09:21.299Z,4.97
2019-01-13T23:11:49.008Z,4.97
2019-01-13T23:14:16.011Z,5.00
2019-01-13T23:16:43.481Z,4.96
2019-01-13T23:19:11.168Z,5.00
2019-01-13T23:21:38.227Z,5.01
2019-01-13T23:24:05.326Z,5.05
2019-01-13T23:26:31.959Z,5.08
2019-01-13T23:28:59.061Z,5.11
2019-01-13T23:31:26.216Z,5.14
2019-01-13T23:33:53.979Z,5.12
2019-01-13T23:36:21.123Z,5.15
2019-01-13T23:38:48.995Z,5.12
2019-01-13T23:41:16.537Z,5.18
2019-01-13T23:43:43.599Z,5.15
2019-01-13T23:46:11.565Z,5.18
2019-01-13T23:48:39.225Z,5.22
2019-01-13T23:51:06.110Z,5.20
2019-01-13T23:53:32.761Z,5.24
2019-01-13T23:55:59.403Z,5.24
2019-01-13T23:58:26.782Z,5.28
